Time;durP1;ratioP1;P1;durP2;ratioP2;P2;SDS_P1;SDS_P2;PMS_P1;PMS_P2;Temp;Humidity;BMP_temperature;BMP_pressure;BME280_temperature;BME280_humidity;BME280_pressure;Samples;Min_cycle;Max_cycle;Signal;HPM_P1;HPM_P2
2021/09/01 00:12:28;;;;;;;11.55;7.33;;;;;;;15.71;100.00;100366.92;716219;1200;115088;-80
2021/09/01 00:27:31;;;;;;;12.68;7.98;;;;;;;15.35;100.00;100383.95;716143;1177;114102;-79
2021/09/01 00:42:37;;;;;;;13.60;7.90;;;;;;;15.05;100.00;100377.47;716076;1205;114455;-79
2021/09/01 00:57:41;;;;;;;15.63;8.68;;;;;;;14.93;100.00;100392.80;716001;1205;115509;-79
2021/09/01 01:12:43;;;;;;;11.40;6.90;;;;;;;14.88;100.00;100418.86;715933;1200;115402;-80
2021/09/01 01:27:46;;;;;;;13.30;7.40;;;;;;;15.04;100.00;100402.22;715876;1200;115610;-79
2021/09/01 01:42:51;;;;;;;10.55;6.45;;;;;;;14.72;100.00;100423.08;715766;1200;114976;-80
2021/09/01 01:57:54;;;;;;;13.08;7.38;;;;;;;14.57;100.00;100417.55;715919;1200;115847;-79
2021/09/01 02:12:56;;;;;;;10.90;6.73;;;;;;;14.47;100.00;100443.23;715999;1199;115100;-79
2021/09/01 02:27:58;;;;;;;11.63;7.10;;;;;;;14.42;100.00;100458.70;716102;1176;114769;-80
2021/09/01 02:43:01;;;;;;;13.03;6.78;;;;;;;14.35;100.00;100460.33;716278;1180;115903;-79
2021/09/01 02:58:03;;;;;;;11.10;7.68;;;;;;;14.24;100.00;100475.42;715803;1177;114121;-79
2021/09/01 03:13:05;;;;;;;16.28;7.50;;;;;;;14.40;100.00;100485.26;715867;1200;114245;-80
2021/09/01 03:28:07;;;;;;;21.18;10.23;;;;;;;14.25;100.00;100505.27;716012;1200;115557;-80
2021/09/01 03:43:09;;;;;;;24.28;12.83;;;;;;;14.26;100.00;100512.20;715847;1205;114771;-80
2021/09/01 03:58:12;;;;;;;38.10;12.83;;;;;;;14.35;100.00;100523.66;715752;1202;114345;-80
2021/09/01 04:13:15;;;;;;;24.13;11.90;;;;;;;14.43;100.00;100528.98;715919;1202;116494;-80
2021/09/01 04:28:17;;;;;;;16.13;8.10;;;;;;;14.45;100.00;100542.84;716623;1200;114773;-80
2021/09/01 04:43:20;;;;;;;15.83;8.15;;;;;;;14.72;100.00;100557.75;716143;1179;114276;-80
2021/09/01 04:58:22;;;;;;;15.13;7.97;;;;;;;14.94;100.00;100566.95;716396;1174;115473;-80
2021/09/01 05:13:28;;;;;;;17.73;9.77;;;;;;;15.05;100.00;100573.78;716438;1202;114744;-80
2021/09/01 05:28:36;;;;;;;27.33;13.20;;;;;;;15.22;100.00;100581.80;715845;1200;114285;-79
2021/09/01 05:43:39;;;;;;;14.80;8.80;;;;;;;15.30;100.00;100581.83;716241;1177;114163;-80
2021/09/01 05:58:43;;;;;;;14.28;7.25;;;;;;;15.75;100.00;100601.80;716011;1200;114703;-79
2021/09/01 06:13:45;;;;;;;10.48;5.75;;;;;;;16.08;100.00;100616.95;716066;1203;114106;-80
2021/09/01 06:28:48;;;;;;;10.08;6.18;;;;;;;16.43;100.00;100621.11;718427;1200;114583;-81
2021/09/01 06:43:51;;;;;;;14.25;5.58;;;;;;;16.80;100.00;100633.00;718274;1199;114019;-73
2021/09/01 06:58:53;;;;;;;11.73;6.33;;;;;;;17.36;100.00;100648.14;717906;1200;114964;-86
2021/09/01 07:13:55;;;;;;;7.70;5.35;;;;;;;18.34;100.00;100640.67;718538;1200;116552;-85
2021/09/01 07:28:57;;;;;;;9.90;5.33;;;;;;;19.12;100.00;100661.77;718669;1203;114239;-85
2021/09/01 07:44:00;;;;;;;8.50;5.33;;;;;;;20.21;100.00;100682.39;718240;1189;113850;-84
2021/09/01 07:59:02;;;;;;;5.28;3.18;;;;;;;20.30;100.00;100699.09;718363;1200;114243;-81
2021/09/01 08:14:05;;;;;;;8.60;3.73;;;;;;;19.44;100.00;100727.09;718579;1200;114380;-81
2021/09/01 08:29:07;;;;;;;3.70;2.40;;;;;;;20.90;100.00;100728.96;718707;1200;113830;-81
2021/09/01 08:44:10;;;;;;;5.23;3.03;;;;;;;20.86;100.00;100730.37;726953;1200;115088;-81
2021/09/01 08:59:12;;;;;;;5.43;2.60;;;;;;;21.20;100.00;100752.80;717711;1199;113848;-79
2021/09/01 09:14:21;;;;;;;4.30;1.90;;;;;;;21.84;100.00;100747.45;718071;1180;113732;-80
2021/09/01 09:29:23;;;;;;;5.78;2.68;;;;;;;21.85;100.00;100765.13;717751;1200;114072;-81
2021/09/01 09:44:27;;;;;;;10.65;2.55;;;;;;;22.10;100.00;100765.43;719137;1200;114384;-80
2021/09/01 09:59:32;;;;;;;6.30;2.55;;;;;;;22.83;100.00;100762.14;718954;1200;116093;-81
2021/09/01 10:14:35;;;;;;;6.08;2.60;;;;;;;24.33;93.47;100773.16;717162;1206;113926;-71
2021/09/01 10:29:45;;;;;;;2.93;1.50;;;;;;;23.20;86.70;100775.11;715810;1188;115013;-71
2021/09/01 10:44:48;;;;;;;6.45;2.73;;;;;;;22.41;87.22;100782.84;716104;1187;113595;-76
2021/09/01 10:59:51;;;;;;;10.40;3.55;;;;;;;21.61;90.37;100816.12;715840;1202;114094;-72
2021/09/01 11:14:55;;;;;;;2.83;1.70;;;;;;;22.27;85.98;100801.45;715553;1177;113674;-72
2021/09/01 11:30:04;;;;;;;4.75;1.38;;;;;;;23.64;86.57;100819.14;715607;1200;113629;-72
2021/09/01 11:45:08;;;;;;;4.17;1.67;;;;;;;23.45;83.03;100820.80;715801;1178;114082;-71
2021/09/01 12:00:11;;;;;;;2.70;1.60;;;;;;;23.54;85.79;100830.25;715745;1178;113868;-75
2021/09/01 12:15:15;;;;;;;3.70;1.90;;;;;;;22.90;79.90;100829.83;715948;1189;113685;-82
2021/09/01 12:30:29;;;;;;;2.20;1.30;;;;;;;23.60;79.57;100823.27;717579;1205;115176;-74
2021/09/01 12:45:32;;;;;;;2.90;1.40;;;;;;;22.08;77.16;100835.09;718398;1177;113843;-84
2021/09/01 13:00:36;;;;;;;3.30;1.63;;;;;;;23.97;78.26;100836.20;719333;1203;114016;-83
2021/09/01 13:15:40;;;;;;;4.28;1.60;;;;;;;22.56;76.76;100826.25;718425;1200;115135;-83
2021/09/01 13:30:44;;;;;;;3.43;1.88;;;;;;;22.70;75.96;100831.63;717953;1193;113787;-83
2021/09/01 13:45:47;;;;;;;4.50;1.90;;;;;;;21.73;77.61;100840.42;717984;1179;113689;-84
2021/09/01 14:00:52;;;;;;;3.63;2.75;;;;;;;23.81;79.22;100845.45;719455;1178;114556;-83
2021/09/01 14:15:56;;;;;;;4.78;2.20;;;;;;;22.93;73.92;100839.30;719055;1200;114119;-82
2021/09/01 14:30:59;;;;;;;5.15;2.95;;;;;;;21.42;78.03;100841.63;718539;1189;113797;-84
2021/09/01 14:46:03;;;;;;;4.75;2.80;;;;;;;25.13;72.27;100845.09;718217;1182;114466;-81
2021/09/01 15:01:06;;;;;;;6.38;3.23;;;;;;;28.05;67.00;100834.34;716214;1199;115571;-75
2021/09/01 15:16:09;;;;;;;6.60;3.67;;;;;;;24.34;68.12;100810.48;715618;1197;114299;-75
2021/09/01 15:31:12;;;;;;;7.30;4.15;;;;;;;24.23;69.66;100809.30;715469;1200;114243;-76
2021/09/01 15:46:16;;;;;;;7.80;5.40;;;;;;;21.58;71.53;100821.86;715649;1200;114379;-76
2021/09/01 16:01:20;;;;;;;7.85;4.15;;;;;;;20.70;74.18;100821.28;715905;1204;114134;-75
2021/09/01 16:16:27;;;;;;;13.98;5.60;;;;;;;19.76;78.54;100812.89;718060;1177;113707;-83
2021/09/01 16:31:30;;;;;;;14.15;9.83;;;;;;;19.31;82.41;100812.02;719507;1177;114410;-82
2021/09/01 16:46:32;;;;;;;7.50;4.70;;;;;;;18.91;86.02;100811.33;718658;1203;115480;-81
2021/09/01 17:01:36;;;;;;;11.10;7.48;;;;;;;18.63;88.63;100811.81;718647;1176;114286;-81
2021/09/01 17:16:44;;;;;;;43.65;24.90;;;;;;;18.04;93.08;100818.41;718660;1177;114240;-82
2021/09/01 17:31:49;;;;;;;55.67;23.43;;;;;;;17.88;97.71;100811.30;718606;1178;114171;-80
2021/09/01 17:46:57;;;;;;;39.00;19.83;;;;;;;17.70;100.00;100832.73;718133;1205;114807;-75
2021/09/01 18:02:00;;;;;;;33.97;13.70;;;;;;;17.55;100.00;100860.92;716704;1177;114837;-75
2021/09/01 18:17:04;;;;;;;27.40;9.93;;;;;;;17.28;100.00;100869.05;716722;1188;115342;-75
2021/09/01 18:32:07;;;;;;;15.00;7.17;;;;;;;17.02;100.00;100890.38;715938;1180;114091;-75
2021/09/01 18:47:12;;;;;;;14.73;6.80;;;;;;;16.64;100.00;100901.36;716073;1200;114067;-81
2021/09/01 19:02:18;;;;;;;14.17;6.43;;;;;;;16.27;100.00;100901.67;717421;1200;115650;-78
2021/09/01 19:17:23;;;;;;;12.95;6.58;;;;;;;16.00;100.00;100913.29;716443;1200;114984;-75
2021/09/01 19:32:28;;;;;;;11.65;5.48;;;;;;;15.75;100.00;100913.89;716202;1178;114932;-76
2021/09/01 19:47:31;;;;;;;17.00;7.40;;;;;;;15.51;100.00;100926.94;719194;1175;114149;-76
2021/09/01 20:02:33;;;;;;;12.88;5.65;;;;;;;15.25;100.00;100928.50;715665;1199;114338;-77
2021/09/01 20:17:37;;;;;;;14.60;7.33;;;;;;;15.08;100.00;100931.96;715674;1200;114225;-77
2021/09/01 20:32:39;;;;;;;12.20;7.13;;;;;;;14.79;100.00;100940.88;716041;1193;114946;-77
2021/09/01 20:47:52;;;;;;;14.23;7.07;;;;;;;14.51;100.00;100940.84;716141;1177;114137;-77
2021/09/01 21:02:56;;;;;;;13.88;6.95;;;;;;;14.35;100.00;100933.53;715647;1203;115457;-77
2021/09/01 21:18:11;;;;;;;14.80;6.10;;;;;;;14.17;100.00;100961.64;715588;1177;115492;-77
2021/09/01 21:33:14;;;;;;;12.43;5.65;;;;;;;14.05;100.00;100967.06;715506;1201;115818;-77
2021/09/01 21:48:17;;;;;;;11.60;5.10;;;;;;;14.01;100.00;100980.70;715790;1200;115073;-77
2021/09/01 22:03:19;;;;;;;10.88;4.95;;;;;;;13.95;100.00;100987.38;715637;1185;114717;-77
2021/09/01 22:18:22;;;;;;;11.73;5.27;;;;;;;13.88;100.00;100980.97;715671;1199;114606;-76
2021/09/01 22:33:24;;;;;;;13.88;5.33;;;;;;;13.77;100.00;100992.50;715507;1176;115093;-77
2021/09/01 22:48:26;;;;;;;10.13;5.60;;;;;;;13.67;100.00;101005.66;715692;1200;114154;-77
2021/09/01 23:03:28;;;;;;;9.07;4.83;;;;;;;13.57;100.00;101004.85;715587;1199;115445;-76
2021/09/01 23:18:31;;;;;;;10.35;4.70;;;;;;;13.57;100.00;101004.85;715526;1200;114791;-77
2021/09/01 23:33:33;;;;;;;12.10;5.43;;;;;;;13.53;100.00;101003.46;715521;1203;115219;-77
2021/09/01 23:48:35;;;;;;;9.00;4.83;;;;;;;13.51;100.00;100994.84;715593;1200;114690;-76
